sensor_id;sensor_type;location;lat;lon;timestamp;P1;durP1;ratioP1;P2;durP2;ratioP2
42096;SDS011;27754;45.414;11.084;2022-10-16T00:01:23;67.55;;;41.33;;
42096;SDS011;27754;45.414;11.084;2022-10-16T00:03:51;73.10;;;44.78;;
42096;SDS011;27754;45.414;11.084;2022-10-16T00:06:19;78.97;;;46.45;;
42096;SDS011;27754;45.414;11.084;2022-10-16T00:08:48;72.60;;;44.40;;
42096;SDS011;27754;45.414;11.084;2022-10-16T00:11:17;71.75;;;45.30;;
42096;SDS011;27754;45.414;11.084;2022-10-16T00:13:50;67.35;;;41.42;;
42096;SDS011;27754;45.414;11.084;2022-10-16T00:16:18;66.45;;;42.70;;
42096;SDS011;27754;45.414;11.084;2022-10-16T00:18:46;59.78;;;39.35;;
42096;SDS011;27754;45.414;11.084;2022-10-16T00:21:14;57.92;;;37.88;;
42096;SDS011;27754;45.414;11.084;2022-10-16T00:23:43;59.58;;;38.72;;
42096;SDS011;27754;45.414;11.084;2022-10-16T00:26:12;62.65;;;38.30;;
42096;SDS011;27754;45.414;11.084;2022-10-16T00:28:41;61.20;;;40.40;;
42096;SDS011;27754;45.414;11.084;2022-10-16T00:31:11;67.13;;;41.78;;
42096;SDS011;27754;45.414;11.084;2022-10-16T00:33:39;65.43;;;40.90;;
42096;SDS011;27754;45.414;11.084;2022-10-16T00:36:07;65.88;;;42.63;;
42096;SDS011;27754;45.414;11.084;2022-10-16T00:38:36;69.55;;;43.22;;
42096;SDS011;27754;45.414;11.084;2022-10-16T00:41:07;68.95;;;41.90;;
42096;SDS011;27754;45.414;11.084;2022-10-16T00:43:43;68.85;;;42.70;;
42096;SDS011;27754;45.414;11.084;2022-10-16T00:49:03;64.57;;;41.05;;
42096;SDS011;27754;45.414;11.084;2022-10-16T00:51:33;69.20;;;40.80;;
42096;SDS011;27754;45.414;11.084;2022-10-16T00:54:10;64.38;;;40.30;;
42096;SDS011;27754;45.414;11.084;2022-10-16T00:56:41;69.15;;;41.40;;
42096;SDS011;27754;45.414;11.084;2022-10-16T00:59:11;65.20;;;40.40;;
42096;SDS011;27754;45.414;11.084;2022-10-16T01:02:01;66.60;;;40.33;;
42096;SDS011;27754;45.414;11.084;2022-10-16T01:04:31;65.95;;;41.10;;
42096;SDS011;27754;45.414;11.084;2022-10-16T01:12:50;64.40;;;40.22;;
42096;SDS011;27754;45.414;11.084;2022-10-16T01:15:53;61.85;;;38.65;;
42096;SDS011;27754;45.414;11.084;2022-10-16T01:18:34;68.07;;;40.88;;
42096;SDS011;27754;45.414;11.084;2022-10-16T01:21:16;68.65;;;41.22;;
42096;SDS011;27754;45.414;11.084;2022-10-16T01:27:07;66.82;;;40.83;;
42096;SDS011;27754;45.414;11.084;2022-10-16T01:29:44;63.83;;;39.40;;
42096;SDS011;27754;45.414;11.084;2022-10-16T01:32:23;61.08;;;38.92;;
42096;SDS011;27754;45.414;11.084;2022-10-16T01:35:04;65.68;;;40.90;;
42096;SDS011;27754;45.414;11.084;2022-10-16T01:37:40;60.00;;;38.78;;
42096;SDS011;27754;45.414;11.084;2022-10-16T01:40:13;64.25;;;40.28;;
42096;SDS011;27754;45.414;11.084;2022-10-16T01:42:47;69.95;;;40.70;;
42096;SDS011;27754;45.414;11.084;2022-10-16T01:45:26;67.72;;;41.03;;
42096;SDS011;27754;45.414;11.084;2022-10-16T01:47:56;68.28;;;40.53;;
42096;SDS011;27754;45.414;11.084;2022-10-16T01:50:26;68.95;;;40.80;;
42096;SDS011;27754;45.414;11.084;2022-10-16T01:52:53;63.78;;;41.88;;
42096;SDS011;27754;45.414;11.084;2022-10-16T01:55:25;68.60;;;42.50;;
42096;SDS011;27754;45.414;11.084;2022-10-16T01:58:05;69.40;;;43.35;;
42096;SDS011;27754;45.414;11.084;2022-10-16T02:00:36;71.10;;;41.53;;
42096;SDS011;27754;45.414;11.084;2022-10-16T02:03:05;70.45;;;42.08;;
42096;SDS011;27754;45.414;11.084;2022-10-16T02:05:42;69.40;;;44.40;;
42096;SDS011;27754;45.414;11.084;2022-10-16T02:08:13;64.80;;;42.50;;
42096;SDS011;27754;45.414;11.084;2022-10-16T02:10:40;68.32;;;42.00;;
42096;SDS011;27754;45.414;11.084;2022-10-16T02:13:42;70.63;;;41.70;;
42096;SDS011;27754;45.414;11.084;2022-10-16T02:16:03;72.68;;;42.75;;
42096;SDS011;27754;45.414;11.084;2022-10-16T02:18:31;65.53;;;40.85;;
42096;SDS011;27754;45.414;11.084;2022-10-16T02:21:11;69.32;;;42.13;;
42096;SDS011;27754;45.414;11.084;2022-10-16T02:26:36;70.28;;;42.22;;
42096;SDS011;27754;45.414;11.084;2022-10-16T02:29:22;75.03;;;40.97;;
42096;SDS011;27754;45.414;11.084;2022-10-16T02:31:53;66.43;;;40.20;;
42096;SDS011;27754;45.414;11.084;2022-10-16T02:34:24;80.85;;;45.95;;
42096;SDS011;27754;45.414;11.084;2022-10-16T02:36:52;81.90;;;45.70;;
42096;SDS011;27754;45.414;11.084;2022-10-16T02:39:21;74.25;;;42.75;;
42096;SDS011;27754;45.414;11.084;2022-10-16T02:41:48;82.20;;;47.17;;
42096;SDS011;27754;45.414;11.084;2022-10-16T02:44:15;73.40;;;45.08;;
42096;SDS011;27754;45.414;11.084;2022-10-16T02:46:42;76.35;;;44.47;;
42096;SDS011;27754;45.414;11.084;2022-10-16T02:49:09;80.72;;;46.78;;
42096;SDS011;27754;45.414;11.084;2022-10-16T02:51:36;71.88;;;43.85;;
42096;SDS011;27754;45.414;11.084;2022-10-16T02:54:03;75.13;;;44.35;;
42096;SDS011;27754;45.414;11.084;2022-10-16T02:56:30;79.07;;;45.88;;
42096;SDS011;27754;45.414;11.084;2022-10-16T02:58:57;74.07;;;43.75;;
42096;SDS011;27754;45.414;11.084;2022-10-16T03:01:24;72.95;;;43.97;;
42096;SDS011;27754;45.414;11.084;2022-10-16T03:03:51;75.95;;;44.13;;
42096;SDS011;27754;45.414;11.084;2022-10-16T03:06:18;71.75;;;42.58;;
42096;SDS011;27754;45.414;11.084;2022-10-16T03:08:45;72.35;;;43.45;;
42096;SDS011;27754;45.414;11.084;2022-10-16T03:11:12;61.55;;;37.38;;
42096;SDS011;27754;45.414;11.084;2022-10-16T03:13:39;69.47;;;42.13;;
42096;SDS011;27754;45.414;11.084;2022-10-16T03:16:06;71.57;;;43.70;;
42096;SDS011;27754;45.414;11.084;2022-10-16T03:18:32;77.90;;;45.67;;
42096;SDS011;27754;45.414;11.084;2022-10-16T03:20:59;76.40;;;46.10;;
42096;SDS011;27754;45.414;11.084;2022-10-16T03:23:26;75.55;;;45.50;;
42096;SDS011;27754;45.414;11.084;2022-10-16T03:25:59;81.32;;;48.08;;
42096;SDS011;27754;45.414;11.084;2022-10-16T03:28:26;73.43;;;44.28;;
42096;SDS011;27754;45.414;11.084;2022-10-16T03:30:53;75.53;;;45.40;;
42096;SDS011;27754;45.414;11.084;2022-10-16T03:33:20;73.10;;;45.05;;
42096;SDS011;27754;45.414;11.084;2022-10-16T03:35:53;72.22;;;42.88;;
42096;SDS011;27754;45.414;11.084;2022-10-16T03:38:21;75.50;;;44.97;;
42096;SDS011;27754;45.414;11.084;2022-10-16T03:40:48;77.38;;;44.03;;
42096;SDS011;27754;45.414;11.084;2022-10-16T03:43:15;73.88;;;44.50;;
42096;SDS011;27754;45.414;11.084;2022-10-16T03:45:42;69.40;;;43.97;;
42096;SDS011;27754;45.414;11.084;2022-10-16T03:48:09;76.32;;;45.50;;
42096;SDS011;27754;45.414;11.084;2022-10-16T03:50:35;74.38;;;45.58;;
42096;SDS011;27754;45.414;11.084;2022-10-16T03:53:03;70.32;;;44.15;;
42096;SDS011;27754;45.414;11.084;2022-10-16T03:55:30;74.32;;;44.72;;
42096;SDS011;27754;45.414;11.084;2022-10-16T03:57:57;74.50;;;43.83;;
42096;SDS011;27754;45.414;11.084;2022-10-16T04:00:24;71.72;;;44.70;;
42096;SDS011;27754;45.414;11.084;2022-10-16T04:02:51;75.70;;;46.72;;
42096;SDS011;27754;45.414;11.084;2022-10-16T04:05:17;79.43;;;48.85;;
42096;SDS011;27754;45.414;11.084;2022-10-16T04:07:44;77.50;;;47.88;;
42096;SDS011;27754;45.414;11.084;2022-10-16T04:10:11;85.43;;;49.05;;
42096;SDS011;27754;45.414;11.084;2022-10-16T04:12:38;83.15;;;49.53;;
42096;SDS011;27754;45.414;11.084;2022-10-16T04:15:05;83.38;;;50.20;;
42096;SDS011;27754;45.414;11.084;2022-10-16T04:17:32;86.25;;;54.78;;
42096;SDS011;27754;45.414;11.084;2022-10-16T04:19:59;83.00;;;50.20;;
42096;SDS011;27754;45.414;11.084;2022-10-16T04:22:26;80.75;;;49.92;;
42096;SDS011;27754;45.414;11.084;2022-10-16T04:24:58;82.55;;;51.60;;
42096;SDS011;27754;45.414;11.084;2022-10-16T04:27:25;92.93;;;56.45;;
42096;SDS011;27754;45.414;11.084;2022-10-16T04:29:52;92.60;;;55.42;;
42096;SDS011;27754;45.414;11.084;2022-10-16T04:32:19;93.45;;;55.65;;
42096;SDS011;27754;45.414;11.084;2022-10-16T04:34:46;97.93;;;59.70;;
42096;SDS011;27754;45.414;11.084;2022-10-16T04:37:13;97.38;;;58.25;;
42096;SDS011;27754;45.414;11.084;2022-10-16T04:39:40;102.35;;;60.10;;
42096;SDS011;27754;45.414;11.084;2022-10-16T04:42:07;100.30;;;59.78;;
42096;SDS011;27754;45.414;11.084;2022-10-16T04:44:34;97.00;;;57.25;;
42096;SDS011;27754;45.414;11.084;2022-10-16T04:47:01;93.15;;;56.45;;
42096;SDS011;27754;45.414;11.084;2022-10-16T04:49:28;95.45;;;56.22;;
42096;SDS011;27754;45.414;11.084;2022-10-16T04:51:54;90.18;;;53.70;;
42096;SDS011;27754;45.414;11.084;2022-10-16T04:54:21;91.22;;;54.50;;
42096;SDS011;27754;45.414;11.084;2022-10-16T04:56:48;89.00;;;55.65;;
42096;SDS011;27754;45.414;11.084;2022-10-16T04:59:18;97.05;;;55.97;;
42096;SDS011;27754;45.414;11.084;2022-10-16T05:01:46;91.25;;;49.63;;
42096;SDS011;27754;45.414;11.084;2022-10-16T05:04:13;84.88;;;50.60;;
42096;SDS011;27754;45.414;11.084;2022-10-16T05:06:41;93.68;;;54.72;;
42096;SDS011;27754;45.414;11.084;2022-10-16T05:09:08;94.80;;;54.35;;
42096;SDS011;27754;45.414;11.084;2022-10-16T05:11:36;95.40;;;56.25;;
42096;SDS011;27754;45.414;11.084;2022-10-16T05:14:03;100.00;;;55.55;;
42096;SDS011;27754;45.414;11.084;2022-10-16T05:16:30;96.30;;;55.25;;
42096;SDS011;27754;45.414;11.084;2022-10-16T05:18:57;93.35;;;54.35;;
42096;SDS011;27754;45.414;11.084;2022-10-16T05:21:44;92.47;;;52.60;;
42096;SDS011;27754;45.414;11.084;2022-10-16T05:24:11;88.40;;;53.78;;
42096;SDS011;27754;45.414;11.084;2022-10-16T05:26:38;88.60;;;52.28;;
42096;SDS011;27754;45.414;11.084;2022-10-16T05:29:05;89.78;;;50.60;;
42096;SDS011;27754;45.414;11.084;2022-10-16T05:31:32;93.03;;;53.58;;
42096;SDS011;27754;45.414;11.084;2022-10-16T05:33:59;90.10;;;55.42;;
42096;SDS011;27754;45.414;11.084;2022-10-16T05:36:26;86.63;;;49.78;;
42096;SDS011;27754;45.414;11.084;2022-10-16T05:38:53;86.63;;;52.15;;
42096;SDS011;27754;45.414;11.084;2022-10-16T05:41:20;86.75;;;52.17;;
42096;SDS011;27754;45.414;11.084;2022-10-16T05:43:48;84.40;;;50.58;;
42096;SDS011;27754;45.414;11.084;2022-10-16T05:46:15;87.18;;;52.90;;
42096;SDS011;27754;45.414;11.084;2022-10-16T05:48:43;88.00;;;52.95;;
42096;SDS011;27754;45.414;11.084;2022-10-16T05:51:11;87.00;;;51.60;;
42096;SDS011;27754;45.414;11.084;2022-10-16T05:53:39;82.60;;;50.03;;
42096;SDS011;27754;45.414;11.084;2022-10-16T05:56:07;88.15;;;50.13;;
42096;SDS011;27754;45.414;11.084;2022-10-16T05:58:36;81.55;;;49.67;;
42096;SDS011;27754;45.414;11.084;2022-10-16T06:01:09;85.63;;;48.72;;
42096;SDS011;27754;45.414;11.084;2022-10-16T06:03:38;83.25;;;48.47;;
42096;SDS011;27754;45.414;11.084;2022-10-16T06:06:13;83.88;;;47.17;;
42096;SDS011;27754;45.414;11.084;2022-10-16T06:11:10;76.93;;;46.97;;
42096;SDS011;27754;45.414;11.084;2022-10-16T06:13:39;68.70;;;44.05;;
42096;SDS011;27754;45.414;11.084;2022-10-16T06:16:09;72.72;;;45.88;;
42096;SDS011;27754;45.414;11.084;2022-10-16T06:18:36;76.22;;;45.28;;
42096;SDS011;27754;45.414;11.084;2022-10-16T06:21:17;72.47;;;43.95;;
42096;SDS011;27754;45.414;11.084;2022-10-16T06:23:46;73.28;;;42.80;;
42096;SDS011;27754;45.414;11.084;2022-10-16T06:26:14;70.13;;;43.63;;
42096;SDS011;27754;45.414;11.084;2022-10-16T06:28:43;74.45;;;45.40;;
42096;SDS011;27754;45.414;11.084;2022-10-16T06:31:10;70.72;;;43.05;;
42096;SDS011;27754;45.414;11.084;2022-10-16T06:33:38;73.40;;;43.97;;
42096;SDS011;27754;45.414;11.084;2022-10-16T06:36:09;67.05;;;43.15;;
42096;SDS011;27754;45.414;11.084;2022-10-16T06:38:41;70.30;;;43.72;;
42096;SDS011;27754;45.414;11.084;2022-10-16T06:41:09;76.00;;;46.35;;
42096;SDS011;27754;45.414;11.084;2022-10-16T06:43:39;74.50;;;44.65;;
42096;SDS011;27754;45.414;11.084;2022-10-16T06:46:06;74.18;;;42.88;;
42096;SDS011;27754;45.414;11.084;2022-10-16T06:48:35;75.15;;;44.33;;
42096;SDS011;27754;45.414;11.084;2022-10-16T06:51:03;72.78;;;44.17;;
42096;SDS011;27754;45.414;11.084;2022-10-16T06:53:42;71.30;;;45.38;;
42096;SDS011;27754;45.414;11.084;2022-10-16T06:56:27;72.78;;;45.65;;
42096;SDS011;27754;45.414;11.084;2022-10-16T06:58:57;81.82;;;52.95;;
42096;SDS011;27754;45.414;11.084;2022-10-16T07:01:25;97.13;;;57.33;;
42096;SDS011;27754;45.414;11.084;2022-10-16T07:03:52;90.20;;;55.25;;
42096;SDS011;27754;45.414;11.084;2022-10-16T07:06:20;83.72;;;53.08;;
42096;SDS011;27754;45.414;11.084;2022-10-16T07:08:49;84.03;;;52.28;;
42096;SDS011;27754;45.414;11.084;2022-10-16T07:11:17;88.28;;;53.97;;
42096;SDS011;27754;45.414;11.084;2022-10-16T07:13:46;93.68;;;58.53;;
42096;SDS011;27754;45.414;11.084;2022-10-16T07:16:21;97.45;;;60.90;;
42096;SDS011;27754;45.414;11.084;2022-10-16T07:18:56;105.10;;;62.38;;
42096;SDS011;27754;45.414;11.084;2022-10-16T07:21:27;103.78;;;61.28;;
42096;SDS011;27754;45.414;11.084;2022-10-16T07:24:02;103.43;;;62.25;;
42096;SDS011;27754;45.414;11.084;2022-10-16T07:26:32;101.53;;;61.63;;
42096;SDS011;27754;45.414;11.084;2022-10-16T07:29:01;97.30;;;58.65;;
42096;SDS011;27754;45.414;11.084;2022-10-16T07:31:28;82.07;;;52.30;;
42096;SDS011;27754;45.414;11.084;2022-10-16T07:33:55;95.07;;;56.58;;
42096;SDS011;27754;45.414;11.084;2022-10-16T07:36:24;93.45;;;55.72;;
42096;SDS011;27754;45.414;11.084;2022-10-16T07:38:52;95.70;;;58.22;;
42096;SDS011;27754;45.414;11.084;2022-10-16T07:41:25;86.82;;;53.72;;
42096;SDS011;27754;45.414;11.084;2022-10-16T07:43:54;97.20;;;53.85;;
42096;SDS011;27754;45.414;11.084;2022-10-16T07:46:23;85.70;;;52.33;;
42096;SDS011;27754;45.414;11.084;2022-10-16T07:48:50;86.25;;;51.20;;
42096;SDS011;27754;45.414;11.084;2022-10-16T07:51:18;79.43;;;46.88;;
42096;SDS011;27754;45.414;11.084;2022-10-16T07:53:46;83.18;;;47.13;;
42096;SDS011;27754;45.414;11.084;2022-10-16T07:56:14;75.63;;;46.67;;
42096;SDS011;27754;45.414;11.084;2022-10-16T07:58:42;73.75;;;47.60;;
42096;SDS011;27754;45.414;11.084;2022-10-16T08:01:11;81.65;;;47.72;;
42096;SDS011;27754;45.414;11.084;2022-10-16T08:03:43;79.55;;;49.92;;
42096;SDS011;27754;45.414;11.084;2022-10-16T08:06:11;73.47;;;47.17;;
42096;SDS011;27754;45.414;11.084;2022-10-16T08:08:38;83.18;;;46.47;;
42096;SDS011;27754;45.414;11.084;2022-10-16T08:11:05;81.35;;;49.67;;
42096;SDS011;27754;45.414;11.084;2022-10-16T08:13:32;85.35;;;51.38;;
42096;SDS011;27754;45.414;11.084;2022-10-16T08:16:00;80.75;;;50.88;;
42096;SDS011;27754;45.414;11.084;2022-10-16T08:18:28;81.53;;;53.92;;
42096;SDS011;27754;45.414;11.084;2022-10-16T08:20:56;78.10;;;49.08;;
42096;SDS011;27754;45.414;11.084;2022-10-16T08:23:24;66.30;;;42.83;;
42096;SDS011;27754;45.414;11.084;2022-10-16T08:25:53;61.13;;;40.20;;
42096;SDS011;27754;45.414;11.084;2022-10-16T08:28:21;63.90;;;41.30;;
42096;SDS011;27754;45.414;11.084;2022-10-16T08:30:49;65.25;;;41.78;;
42096;SDS011;27754;45.414;11.084;2022-10-16T08:33:16;66.07;;;42.55;;
42096;SDS011;27754;45.414;11.084;2022-10-16T08:35:49;67.63;;;43.20;;
42096;SDS011;27754;45.414;11.084;2022-10-16T08:38:20;62.30;;;41.42;;
42096;SDS011;27754;45.414;11.084;2022-10-16T08:40:48;67.82;;;43.72;;
42096;SDS011;27754;45.414;11.084;2022-10-16T08:48:49;62.95;;;41.33;;
42096;SDS011;27754;45.414;11.084;2022-10-16T08:51:28;66.95;;;43.63;;
42096;SDS011;27754;45.414;11.084;2022-10-16T08:53:59;63.05;;;42.80;;
42096;SDS011;27754;45.414;11.084;2022-10-16T08:56:30;69.00;;;42.88;;
42096;SDS011;27754;45.414;11.084;2022-10-16T08:58:58;63.45;;;42.55;;
42096;SDS011;27754;45.414;11.084;2022-10-16T09:01:38;73.85;;;45.90;;
42096;SDS011;27754;45.414;11.084;2022-10-16T09:07:09;69.60;;;44.83;;
42096;SDS011;27754;45.414;11.084;2022-10-16T09:15:15;68.63;;;45.15;;
42096;SDS011;27754;45.414;11.084;2022-10-16T09:23:00;68.30;;;45.22;;
42096;SDS011;27754;45.414;11.084;2022-10-16T09:25:35;74.55;;;45.95;;
42096;SDS011;27754;45.414;11.084;2022-10-16T09:28:07;73.18;;;45.03;;
42096;SDS011;27754;45.414;11.084;2022-10-16T09:30:34;70.90;;;45.97;;
42096;SDS011;27754;45.414;11.084;2022-10-16T09:33:01;68.35;;;46.00;;
42096;SDS011;27754;45.414;11.084;2022-10-16T09:35:35;75.70;;;47.80;;
42096;SDS011;27754;45.414;11.084;2022-10-16T09:38:05;76.45;;;48.13;;
42096;SDS011;27754;45.414;11.084;2022-10-16T09:40:36;74.43;;;47.60;;
42096;SDS011;27754;45.414;11.084;2022-10-16T09:43:24;73.03;;;48.38;;
42096;SDS011;27754;45.414;11.084;2022-10-16T09:49:49;75.82;;;46.78;;
42096;SDS011;27754;45.414;11.084;2022-10-16T09:51:48;77.95;;;50.35;;
42096;SDS011;27754;45.414;11.084;2022-10-16T09:54:18;72.03;;;47.97;;
42096;SDS011;27754;45.414;11.084;2022-10-16T09:56:47;69.32;;;46.20;;
42096;SDS011;27754;45.414;11.084;2022-10-16T09:59:21;66.07;;;44.30;;
42096;SDS011;27754;45.414;11.084;2022-10-16T10:01:54;69.40;;;44.67;;
42096;SDS011;27754;45.414;11.084;2022-10-16T10:04:24;64.65;;;41.90;;
42096;SDS011;27754;45.414;11.084;2022-10-16T10:06:55;63.35;;;42.33;;
42096;SDS011;27754;45.414;11.084;2022-10-16T10:09:24;65.85;;;41.35;;
42096;SDS011;27754;45.414;11.084;2022-10-16T10:11:57;59.00;;;40.88;;
42096;SDS011;27754;45.414;11.084;2022-10-16T10:22:32;50.95;;;35.17;;
42096;SDS011;27754;45.414;11.084;2022-10-16T10:25:14;49.42;;;34.00;;
42096;SDS011;27754;45.414;11.084;2022-10-16T10:33:43;61.28;;;39.58;;
42096;SDS011;27754;45.414;11.084;2022-10-16T10:36:39;54.95;;;38.50;;
42096;SDS011;27754;45.414;11.084;2022-10-16T10:39:27;54.60;;;36.70;;
42096;SDS011;27754;45.414;11.084;2022-10-16T10:45:14;57.08;;;36.53;;
42096;SDS011;27754;45.414;11.084;2022-10-16T11:01:13;46.92;;;32.40;;
42096;SDS011;27754;45.414;11.084;2022-10-16T11:09:08;50.65;;;36.70;;
42096;SDS011;27754;45.414;11.084;2022-10-16T11:11:47;50.72;;;36.83;;
42096;SDS011;27754;45.414;11.084;2022-10-16T11:14:26;46.53;;;33.75;;
42096;SDS011;27754;45.414;11.084;2022-10-16T11:17:19;45.42;;;32.92;;
42096;SDS011;27754;45.414;11.084;2022-10-16T11:19:49;52.53;;;36.05;;
42096;SDS011;27754;45.414;11.084;2022-10-16T11:22:37;48.90;;;35.55;;
42096;SDS011;27754;45.414;11.084;2022-10-16T11:25:19;52.47;;;35.13;;
42096;SDS011;27754;45.414;11.084;2022-10-16T11:30:41;51.20;;;33.97;;
42096;SDS011;27754;45.414;11.084;2022-10-16T11:33:24;49.85;;;34.03;;
42096;SDS011;27754;45.414;11.084;2022-10-16T11:47:27;50.28;;;35.33;;
42096;SDS011;27754;45.414;11.084;2022-10-16T11:52:53;54.13;;;35.22;;
42096;SDS011;27754;45.414;11.084;2022-10-16T11:55:35;53.00;;;36.20;;
42096;SDS011;27754;45.414;11.084;2022-10-16T12:00:57;57.85;;;35.50;;
42096;SDS011;27754;45.414;11.084;2022-10-16T12:03:45;52.63;;;36.20;;
42096;SDS011;27754;45.414;11.084;2022-10-16T12:09:00;52.78;;;38.35;;
42096;SDS011;27754;45.414;11.084;2022-10-16T12:14:05;51.97;;;37.10;;
42096;SDS011;27754;45.414;11.084;2022-10-16T12:16:33;52.08;;;36.17;;
42096;SDS011;27754;45.414;11.084;2022-10-16T12:19:13;52.47;;;38.53;;
42096;SDS011;27754;45.414;11.084;2022-10-16T12:21:42;59.97;;;38.70;;
42096;SDS011;27754;45.414;11.084;2022-10-16T12:27:00;54.47;;;38.05;;
42096;SDS011;27754;45.414;11.084;2022-10-16T12:29:41;53.75;;;38.30;;
42096;SDS011;27754;45.414;11.084;2022-10-16T12:32:23;59.13;;;38.70;;
42096;SDS011;27754;45.414;11.084;2022-10-16T12:35:22;51.22;;;36.67;;
42096;SDS011;27754;45.414;11.084;2022-10-16T12:37:54;57.53;;;38.58;;
42096;SDS011;27754;45.414;11.084;2022-10-16T12:40:32;58.67;;;39.30;;
42096;SDS011;27754;45.414;11.084;2022-10-16T12:43:10;55.50;;;37.10;;
42096;SDS011;27754;45.414;11.084;2022-10-16T12:48:37;53.60;;;37.13;;
42096;SDS011;27754;45.414;11.084;2022-10-16T12:54:03;48.97;;;34.25;;
42096;SDS011;27754;45.414;11.084;2022-10-16T12:56:44;56.45;;;36.97;;
42096;SDS011;27754;45.414;11.084;2022-10-16T13:13:36;55.83;;;37.17;;
42096;SDS011;27754;45.414;11.084;2022-10-16T13:29:52;55.35;;;37.85;;
42096;SDS011;27754;45.414;11.084;2022-10-16T13:32:26;53.10;;;37.22;;
42096;SDS011;27754;45.414;11.084;2022-10-16T13:34:53;53.80;;;36.67;;
42096;SDS011;27754;45.414;11.084;2022-10-16T13:37:22;55.33;;;37.38;;
42096;SDS011;27754;45.414;11.084;2022-10-16T13:39:50;56.95;;;38.88;;
42096;SDS011;27754;45.414;11.084;2022-10-16T13:42:24;53.35;;;38.55;;
42096;SDS011;27754;45.414;11.084;2022-10-16T13:44:55;56.15;;;37.33;;
42096;SDS011;27754;45.414;11.084;2022-10-16T13:47:24;55.75;;;36.92;;
42096;SDS011;27754;45.414;11.084;2022-10-16T13:50:03;58.15;;;37.78;;
42096;SDS011;27754;45.414;11.084;2022-10-16T13:52:31;53.20;;;37.22;;
42096;SDS011;27754;45.414;11.084;2022-10-16T13:54:58;52.33;;;37.05;;
42096;SDS011;27754;45.414;11.084;2022-10-16T13:57:27;55.67;;;36.42;;
42096;SDS011;27754;45.414;11.084;2022-10-16T13:59:54;52.08;;;35.45;;
42096;SDS011;27754;45.414;11.084;2022-10-16T14:02:34;56.88;;;37.33;;
42096;SDS011;27754;45.414;11.084;2022-10-16T14:05:07;50.28;;;34.95;;
42096;SDS011;27754;45.414;11.084;2022-10-16T14:07:36;53.78;;;35.35;;
42096;SDS011;27754;45.414;11.084;2022-10-16T14:10:19;53.83;;;38.03;;
42096;SDS011;27754;45.414;11.084;2022-10-16T14:13:02;55.35;;;38.20;;
42096;SDS011;27754;45.414;11.084;2022-10-16T14:15:32;52.20;;;35.33;;
42096;SDS011;27754;45.414;11.084;2022-10-16T14:18:01;53.35;;;35.35;;
42096;SDS011;27754;45.414;11.084;2022-10-16T14:20:29;47.15;;;33.50;;
42096;SDS011;27754;45.414;11.084;2022-10-16T14:23:03;57.47;;;38.95;;
42096;SDS011;27754;45.414;11.084;2022-10-16T14:25:45;51.40;;;36.25;;
42096;SDS011;27754;45.414;11.084;2022-10-16T14:28:19;57.13;;;37.30;;
42096;SDS011;27754;45.414;11.084;2022-10-16T14:30:49;54.15;;;35.67;;
42096;SDS011;27754;45.414;11.084;2022-10-16T14:33:21;55.45;;;37.80;;
42096;SDS011;27754;45.414;11.084;2022-10-16T14:38:28;53.50;;;36.22;;
42096;SDS011;27754;45.414;11.084;2022-10-16T14:40:56;52.17;;;36.08;;
42096;SDS011;27754;45.414;11.084;2022-10-16T14:46:23;52.72;;;36.25;;
42096;SDS011;27754;45.414;11.084;2022-10-16T14:49:02;61.60;;;38.75;;
42096;SDS011;27754;45.414;11.084;2022-10-16T14:51:40;52.20;;;35.47;;
42096;SDS011;27754;45.414;11.084;2022-10-16T14:54:08;53.78;;;36.47;;
42096;SDS011;27754;45.414;11.084;2022-10-16T14:56:49;51.55;;;37.47;;
42096;SDS011;27754;45.414;11.084;2022-10-16T14:59:27;53.47;;;36.35;;
42096;SDS011;27754;45.414;11.084;2022-10-16T15:02:12;46.63;;;34.25;;
42096;SDS011;27754;45.414;11.084;2022-10-16T15:04:54;51.83;;;33.88;;
42096;SDS011;27754;45.414;11.084;2022-10-16T15:07:22;55.00;;;36.67;;
42096;SDS011;27754;45.414;11.084;2022-10-16T15:09:49;49.50;;;35.88;;
42096;SDS011;27754;45.414;11.084;2022-10-16T15:12:16;47.42;;;33.53;;
42096;SDS011;27754;45.414;11.084;2022-10-16T15:14:43;54.17;;;36.90;;
42096;SDS011;27754;45.414;11.084;2022-10-16T15:17:11;47.45;;;35.35;;
42096;SDS011;27754;45.414;11.084;2022-10-16T15:19:39;53.92;;;36.63;;
42096;SDS011;27754;45.414;11.084;2022-10-16T15:22:08;54.97;;;35.90;;
42096;SDS011;27754;45.414;11.084;2022-10-16T15:24:37;45.92;;;31.55;;
42096;SDS011;27754;45.414;11.084;2022-10-16T15:27:04;42.95;;;31.30;;
42096;SDS011;27754;45.414;11.084;2022-10-16T15:29:31;44.03;;;32.70;;
42096;SDS011;27754;45.414;11.084;2022-10-16T15:31:57;48.75;;;33.90;;
42096;SDS011;27754;45.414;11.084;2022-10-16T15:34:24;42.17;;;31.50;;
42096;SDS011;27754;45.414;11.084;2022-10-16T15:36:51;51.35;;;35.92;;
42096;SDS011;27754;45.414;11.084;2022-10-16T15:39:19;51.08;;;36.75;;
42096;SDS011;27754;45.414;11.084;2022-10-16T15:41:46;53.10;;;35.67;;
42096;SDS011;27754;45.414;11.084;2022-10-16T15:44:17;55.15;;;35.70;;
42096;SDS011;27754;45.414;11.084;2022-10-16T15:46:45;55.15;;;37.10;;
42096;SDS011;27754;45.414;11.084;2022-10-16T15:49:15;51.80;;;36.22;;
42096;SDS011;27754;45.414;11.084;2022-10-16T15:51:42;53.83;;;34.22;;
42096;SDS011;27754;45.414;11.084;2022-10-16T15:54:08;51.05;;;35.78;;
42096;SDS011;27754;45.414;11.084;2022-10-16T15:56:35;51.72;;;35.60;;
42096;SDS011;27754;45.414;11.084;2022-10-16T15:59:03;51.58;;;36.10;;
42096;SDS011;27754;45.414;11.084;2022-10-16T16:01:32;50.63;;;35.72;;
42096;SDS011;27754;45.414;11.084;2022-10-16T16:04:00;51.20;;;35.13;;
42096;SDS011;27754;45.414;11.084;2022-10-16T16:06:40;48.00;;;33.92;;
42096;SDS011;27754;45.414;11.084;2022-10-16T16:09:11;48.47;;;34.88;;
42096;SDS011;27754;45.414;11.084;2022-10-16T16:11:40;52.47;;;35.60;;
42096;SDS011;27754;45.414;11.084;2022-10-16T16:14:09;51.75;;;35.97;;
42096;SDS011;27754;45.414;11.084;2022-10-16T16:16:39;52.28;;;35.65;;
42096;SDS011;27754;45.414;11.084;2022-10-16T16:19:07;53.70;;;34.40;;
42096;SDS011;27754;45.414;11.084;2022-10-16T16:21:37;48.20;;;35.53;;
42096;SDS011;27754;45.414;11.084;2022-10-16T16:24:04;53.50;;;37.03;;
42096;SDS011;27754;45.414;11.084;2022-10-16T16:26:35;58.30;;;37.50;;
42096;SDS011;27754;45.414;11.084;2022-10-16T16:29:05;54.25;;;36.35;;
42096;SDS011;27754;45.414;11.084;2022-10-16T16:31:33;55.85;;;36.95;;
42096;SDS011;27754;45.414;11.084;2022-10-16T16:34:01;56.95;;;37.60;;
42096;SDS011;27754;45.414;11.084;2022-10-16T16:36:29;52.88;;;35.88;;
42096;SDS011;27754;45.414;11.084;2022-10-16T16:38:56;51.63;;;35.50;;
42096;SDS011;27754;45.414;11.084;2022-10-16T16:41:24;51.90;;;36.05;;
42096;SDS011;27754;45.414;11.084;2022-10-16T16:43:54;51.28;;;36.22;;
42096;SDS011;27754;45.414;11.084;2022-10-16T16:46:21;55.08;;;37.25;;
42096;SDS011;27754;45.414;11.084;2022-10-16T16:48:48;54.17;;;36.17;;
42096;SDS011;27754;45.414;11.084;2022-10-16T16:51:21;57.30;;;36.80;;
42096;SDS011;27754;45.414;11.084;2022-10-16T16:53:49;53.47;;;35.55;;